sensor_id;sensor_type;location;lat;lon;timestamp;temperature;humidity
4050;DHT22;2039;50.894;6.888;2023-02-28T00:01:05;1.70;1.00
4050;DHT22;2039;50.894;6.888;2023-02-28T00:03:34;1.70;1.00
4050;DHT22;2039;50.894;6.888;2023-02-28T00:06:03;1.70;1.00
4050;DHT22;2039;50.894;6.888;2023-02-28T00:08:29;1.80;1.00
4050;DHT22;2039;50.894;6.888;2023-02-28T00:10:55;1.70;1.00
4050;DHT22;2039;50.894;6.888;2023-02-28T00:13:21;1.60;1.00
4050;DHT22;2039;50.894;6.888;2023-02-28T00:15:47;1.60;1.00
4050;DHT22;2039;50.894;6.888;2023-02-28T00:18:12;1.60;1.00
4050;DHT22;2039;50.894;6.888;2023-02-28T00:20:39;1.50;1.00
4050;DHT22;2039;50.894;6.888;2023-02-28T00:23:08;1.50;1.00
4050;DHT22;2039;50.894;6.888;2023-02-28T00:25:33;1.60;1.00
4050;DHT22;2039;50.894;6.888;2023-02-28T00:27:59;1.70;1.00
4050;DHT22;2039;50.894;6.888;2023-02-28T00:30:25;1.50;1.00
4050;DHT22;2039;50.894;6.888;2023-02-28T00:32:51;1.50;1.00
4050;DHT22;2039;50.894;6.888;2023-02-28T00:35:16;1.50;1.00
4050;DHT22;2039;50.894;6.888;2023-02-28T00:37:42;1.50;1.00
4050;DHT22;2039;50.894;6.888;2023-02-28T00:40:08;1.40;1.00
4050;DHT22;2039;50.894;6.888;2023-02-28T00:42:35;1.50;1.00
4050;DHT22;2039;50.894;6.888;2023-02-28T00:45:02;1.40;1.00
4050;DHT22;2039;50.894;6.888;2023-02-28T00:47:30;1.40;1.00
4050;DHT22;2039;50.894;6.888;2023-02-28T00:49:56;1.40;1.00
4050;DHT22;2039;50.894;6.888;2023-02-28T00:52:21;1.40;1.00
4050;DHT22;2039;50.894;6.888;2023-02-28T00:54:47;1.40;1.00
4050;DHT22;2039;50.894;6.888;2023-02-28T00:57:12;1.50;1.00
4050;DHT22;2039;50.894;6.888;2023-02-28T00:59:38;1.40;1.00
4050;DHT22;2039;50.894;6.888;2023-02-28T01:02:04;1.50;1.00
4050;DHT22;2039;50.894;6.888;2023-02-28T01:04:29;1.50;1.00
4050;DHT22;2039;50.894;6.888;2023-02-28T01:06:58;1.40;1.00
4050;DHT22;2039;50.894;6.888;2023-02-28T01:09:23;1.50;1.00
4050;DHT22;2039;50.894;6.888;2023-02-28T01:11:49;1.40;1.00
4050;DHT22;2039;50.894;6.888;2023-02-28T01:14:17;1.40;1.00
4050;DHT22;2039;50.894;6.888;2023-02-28T01:16:43;1.50;1.00
4050;DHT22;2039;50.894;6.888;2023-02-28T01:19:09;1.50;1.00
4050;DHT22;2039;50.894;6.888;2023-02-28T01:21:35;1.50;1.00
4050;DHT22;2039;50.894;6.888;2023-02-28T01:24:03;1.30;1.00
4050;DHT22;2039;50.894;6.888;2023-02-28T01:26:29;1.30;1.00
4050;DHT22;2039;50.894;6.888;2023-02-28T01:28:55;1.40;1.00
4050;DHT22;2039;50.894;6.888;2023-02-28T01:31:21;1.30;1.00
4050;DHT22;2039;50.894;6.888;2023-02-28T01:33:48;1.30;1.00
4050;DHT22;2039;50.894;6.888;2023-02-28T01:36:19;1.30;1.00
4050;DHT22;2039;50.894;6.888;2023-02-28T01:38:48;1.30;1.00
4050;DHT22;2039;50.894;6.888;2023-02-28T01:41:23;1.30;1.00
4050;DHT22;2039;50.894;6.888;2023-02-28T01:46:15;1.30;1.20
4050;DHT22;2039;50.894;6.888;2023-02-28T01:48:45;1.20;2.20
4050;DHT22;2039;50.894;6.888;2023-02-28T01:51:18;1.20;3.10
4050;DHT22;2039;50.894;6.888;2023-02-28T01:53:49;1.20;3.80
4050;DHT22;2039;50.894;6.888;2023-02-28T01:56:20;1.20;4.30
4050;DHT22;2039;50.894;6.888;2023-02-28T01:58:52;1.20;3.30
4050;DHT22;2039;50.894;6.888;2023-02-28T02:01:19;1.10;3.70
4050;DHT22;2039;50.894;6.888;2023-02-28T02:03:54;1.20;2.40
4050;DHT22;2039;50.894;6.888;2023-02-28T02:06:27;1.10;1.10
4050;DHT22;2039;50.894;6.888;2023-02-28T02:08:54;1.10;4.20
4050;DHT22;2039;50.894;6.888;2023-02-28T02:11:22;1.10;3.90
4050;DHT22;2039;50.894;6.888;2023-02-28T02:20:11;1.00;4.30
4050;DHT22;2039;50.894;6.888;2023-02-28T02:25:53;1.00;6.00
4050;DHT22;2039;50.894;6.888;2023-02-28T02:36:51;0.90;3.20
4050;DHT22;2039;50.894;6.888;2023-02-28T02:41:54;0.90;2.50
4050;DHT22;2039;50.894;6.888;2023-02-28T02:44:25;1.10;1.00
4050;DHT22;2039;50.894;6.888;2023-02-28T02:46:58;1.00;1.00
4050;DHT22;2039;50.894;6.888;2023-02-28T02:49:29;1.00;1.00
4050;DHT22;2039;50.894;6.888;2023-02-28T02:52:00;1.00;1.00
4050;DHT22;2039;50.894;6.888;2023-02-28T02:54:36;1.00;1.00
4050;DHT22;2039;50.894;6.888;2023-02-28T02:57:36;0.90;1.00
4050;DHT22;2039;50.894;6.888;2023-02-28T03:00:00;0.90;1.00
4050;DHT22;2039;50.894;6.888;2023-02-28T03:02:28;0.90;1.00
4050;DHT22;2039;50.894;6.888;2023-02-28T03:05:47;0.90;1.00
4050;DHT22;2039;50.894;6.888;2023-02-28T03:07:46;0.90;1.00
4050;DHT22;2039;50.894;6.888;2023-02-28T03:10:28;1.00;1.00
4050;DHT22;2039;50.894;6.888;2023-02-28T03:13:08;1.00;1.00
4050;DHT22;2039;50.894;6.888;2023-02-28T03:18:29;0.90;1.00
4050;DHT22;2039;50.894;6.888;2023-02-28T03:21:11;0.90;1.00
4050;DHT22;2039;50.894;6.888;2023-02-28T03:26:58;0.80;1.00
4050;DHT22;2039;50.894;6.888;2023-02-28T03:29:51;0.70;1.00
4050;DHT22;2039;50.894;6.888;2023-02-28T03:32:36;0.70;1.00
4050;DHT22;2039;50.894;6.888;2023-02-28T03:35:38;0.70;1.00
4050;DHT22;2039;50.894;6.888;2023-02-28T03:38:02;0.80;1.00
4050;DHT22;2039;50.894;6.888;2023-02-28T03:40:33;0.80;1.00
4050;DHT22;2039;50.894;6.888;2023-02-28T03:43:06;0.80;1.00
4050;DHT22;2039;50.894;6.888;2023-02-28T03:45:36;0.90;1.00
4050;DHT22;2039;50.894;6.888;2023-02-28T03:48:15;0.90;1.00
4050;DHT22;2039;50.894;6.888;2023-02-28T03:50:45;0.80;1.00
4050;DHT22;2039;50.894;6.888;2023-02-28T03:53:19;0.80;1.00
4050;DHT22;2039;50.894;6.888;2023-02-28T03:55:49;0.90;1.00
4050;DHT22;2039;50.894;6.888;2023-02-28T03:58:41;0.70;1.00
4050;DHT22;2039;50.894;6.888;2023-02-28T04:01:23;0.70;1.00
4050;DHT22;2039;50.894;6.888;2023-02-28T04:03:51;0.70;1.00
4050;DHT22;2039;50.894;6.888;2023-02-28T04:06:20;0.70;1.00
4050;DHT22;2039;50.894;6.888;2023-02-28T04:08:46;0.70;1.00
4050;DHT22;2039;50.894;6.888;2023-02-28T04:13:51;0.90;1.00
4050;DHT22;2039;50.894;6.888;2023-02-28T04:16:17;0.80;1.00
4050;DHT22;2039;50.894;6.888;2023-02-28T04:18:43;0.80;1.00
4050;DHT22;2039;50.894;6.888;2023-02-28T04:21:09;0.90;1.00
4050;DHT22;2039;50.894;6.888;2023-02-28T04:23:35;0.80;1.00
4050;DHT22;2039;50.894;6.888;2023-02-28T04:26:01;0.70;1.00
4050;DHT22;2039;50.894;6.888;2023-02-28T04:28:27;0.70;1.00
4050;DHT22;2039;50.894;6.888;2023-02-28T04:31:10;0.70;1.00
4050;DHT22;2039;50.894;6.888;2023-02-28T04:33:36;0.60;1.00
4050;DHT22;2039;50.894;6.888;2023-02-28T04:36:04;0.60;1.00
4050;DHT22;2039;50.894;6.888;2023-02-28T04:38:32;0.60;1.00
4050;DHT22;2039;50.894;6.888;2023-02-28T04:40:59;0.50;1.00
4050;DHT22;2039;50.894;6.888;2023-02-28T04:43:28;0.50;1.00
4050;DHT22;2039;50.894;6.888;2023-02-28T04:45:55;0.50;1.00
4050;DHT22;2039;50.894;6.888;2023-02-28T04:48:33;0.50;1.00
4050;DHT22;2039;50.894;6.888;2023-02-28T04:51:04;0.60;1.00
4050;DHT22;2039;50.894;6.888;2023-02-28T04:53:30;0.60;1.00
4050;DHT22;2039;50.894;6.888;2023-02-28T04:55:57;0.60;1.00
4050;DHT22;2039;50.894;6.888;2023-02-28T04:58:25;0.50;1.00
4050;DHT22;2039;50.894;6.888;2023-02-28T05:00:52;0.40;1.00
4050;DHT22;2039;50.894;6.888;2023-02-28T05:03:18;0.40;1.00
4050;DHT22;2039;50.894;6.888;2023-02-28T05:05:46;0.30;1.00
4050;DHT22;2039;50.894;6.888;2023-02-28T05:08:12;0.30;1.00
4050;DHT22;2039;50.894;6.888;2023-02-28T05:10:38;0.20;1.00
4050;DHT22;2039;50.894;6.888;2023-02-28T05:13:04;0.30;1.00
4050;DHT22;2039;50.894;6.888;2023-02-28T05:15:30;0.20;1.00
4050;DHT22;2039;50.894;6.888;2023-02-28T05:17:55;0.20;1.00
4050;DHT22;2039;50.894;6.888;2023-02-28T05:20:21;0.20;1.00
4050;DHT22;2039;50.894;6.888;2023-02-28T05:22:47;0.20;1.00
4050;DHT22;2039;50.894;6.888;2023-02-28T05:25:17;0.20;1.00
4050;DHT22;2039;50.894;6.888;2023-02-28T05:27:43;0.20;1.00
4050;DHT22;2039;50.894;6.888;2023-02-28T05:30:34;0.10;1.00
4050;DHT22;2039;50.894;6.888;2023-02-28T05:33:32;0.10;1.00
4050;DHT22;2039;50.894;6.888;2023-02-28T05:36:19;0.00;1.00
4050;DHT22;2039;50.894;6.888;2023-02-28T05:38:51;0.00;1.00
4050;DHT22;2039;50.894;6.888;2023-02-28T05:41:57;0.00;1.00
4050;DHT22;2039;50.894;6.888;2023-02-28T05:44:55;0.00;1.00
4050;DHT22;2039;50.894;6.888;2023-02-28T05:51:31;0.00;1.00
4050;DHT22;2039;50.894;6.888;2023-02-28T05:54:58;0.00;1.00
4050;DHT22;2039;50.894;6.888;2023-02-28T05:57:49;0.00;1.00
4050;DHT22;2039;50.894;6.888;2023-02-28T06:00:31;0.00;1.00
4050;DHT22;2039;50.894;6.888;2023-02-28T06:03:20;-0.10;1.00
4050;DHT22;2039;50.894;6.888;2023-02-28T06:06:26;-0.10;1.00
4050;DHT22;2039;50.894;6.888;2023-02-28T06:09:10;0.00;1.00
4050;DHT22;2039;50.894;6.888;2023-02-28T06:11:53;0.00;1.00
4050;DHT22;2039;50.894;6.888;2023-02-28T06:14:37;0.00;1.00
4050;DHT22;2039;50.894;6.888;2023-02-28T06:17:11;0.00;1.00
4050;DHT22;2039;50.894;6.888;2023-02-28T06:19:54;-0.10;1.00
4050;DHT22;2039;50.894;6.888;2023-02-28T06:23:20;0.00;1.00
4050;DHT22;2039;50.894;6.888;2023-02-28T06:26:04;0.10;1.00
4050;DHT22;2039;50.894;6.888;2023-02-28T06:28:35;0.20;1.00
4050;DHT22;2039;50.894;6.888;2023-02-28T06:31:23;0.20;1.00
4050;DHT22;2039;50.894;6.888;2023-02-28T06:33:54;0.30;1.00
4050;DHT22;2039;50.894;6.888;2023-02-28T06:36:33;0.30;1.00
4050;DHT22;2039;50.894;6.888;2023-02-28T06:39:15;0.30;1.00
4050;DHT22;2039;50.894;6.888;2023-02-28T06:41:50;0.40;1.00
4050;DHT22;2039;50.894;6.888;2023-02-28T06:44:24;0.40;1.00
4050;DHT22;2039;50.894;6.888;2023-02-28T06:47:06;0.40;1.00
4050;DHT22;2039;50.894;6.888;2023-02-28T06:49:51;0.40;1.00
4050;DHT22;2039;50.894;6.888;2023-02-28T06:52:17;0.30;1.00
4050;DHT22;2039;50.894;6.888;2023-02-28T06:54:46;0.40;1.00
4050;DHT22;2039;50.894;6.888;2023-02-28T06:57:29;0.40;1.00
4050;DHT22;2039;50.894;6.888;2023-02-28T07:00:07;0.40;1.00
4050;DHT22;2039;50.894;6.888;2023-02-28T07:02:34;0.40;1.00
4050;DHT22;2039;50.894;6.888;2023-02-28T07:05:00;0.40;1.00
4050;DHT22;2039;50.894;6.888;2023-02-28T07:07:26;0.50;1.00
4050;DHT22;2039;50.894;6.888;2023-02-28T07:09:55;0.50;1.00
4050;DHT22;2039;50.894;6.888;2023-02-28T07:12:22;0.60;1.00
4050;DHT22;2039;50.894;6.888;2023-02-28T07:14:47;0.60;1.00
4050;DHT22;2039;50.894;6.888;2023-02-28T07:17:13;0.70;1.00
4050;DHT22;2039;50.894;6.888;2023-02-28T07:19:39;0.70;1.00
4050;DHT22;2039;50.894;6.888;2023-02-28T07:22:05;0.70;1.00
4050;DHT22;2039;50.894;6.888;2023-02-28T07:24:31;0.70;1.00
4050;DHT22;2039;50.894;6.888;2023-02-28T07:27:00;0.70;1.00
4050;DHT22;2039;50.894;6.888;2023-02-28T07:29:26;0.70;1.00
4050;DHT22;2039;50.894;6.888;2023-02-28T07:31:52;0.70;1.00
4050;DHT22;2039;50.894;6.888;2023-02-28T07:34:39;0.70;1.00
4050;DHT22;2039;50.894;6.888;2023-02-28T07:37:33;0.70;1.00
4050;DHT22;2039;50.894;6.888;2023-02-28T07:40:06;0.80;1.00
4050;DHT22;2039;50.894;6.888;2023-02-28T07:42:34;0.90;1.00
4050;DHT22;2039;50.894;6.888;2023-02-28T07:45:09;0.90;1.00
4050;DHT22;2039;50.894;6.888;2023-02-28T07:47:42;1.00;1.00
4050;DHT22;2039;50.894;6.888;2023-02-28T07:50:14;0.90;1.00
4050;DHT22;2039;50.894;6.888;2023-02-28T07:52:41;1.00;1.00
4050;DHT22;2039;50.894;6.888;2023-02-28T07:55:10;1.00;1.00
4050;DHT22;2039;50.894;6.888;2023-02-28T07:57:36;1.10;1.00
4050;DHT22;2039;50.894;6.888;2023-02-28T08:00:07;1.10;1.00
4050;DHT22;2039;50.894;6.888;2023-02-28T08:02:34;1.20;1.00
4050;DHT22;2039;50.894;6.888;2023-02-28T08:05:00;1.30;1.00
4050;DHT22;2039;50.894;6.888;2023-02-28T08:07:26;1.30;1.00
4050;DHT22;2039;50.894;6.888;2023-02-28T08:09:52;1.30;1.00
4050;DHT22;2039;50.894;6.888;2023-02-28T08:12:18;1.30;1.00
4050;DHT22;2039;50.894;6.888;2023-02-28T08:14:43;1.40;1.00
4050;DHT22;2039;50.894;6.888;2023-02-28T08:17:10;1.50;1.00
4050;DHT22;2039;50.894;6.888;2023-02-28T08:19:36;1.50;1.00
4050;DHT22;2039;50.894;6.888;2023-02-28T08:22:04;1.50;1.00
4050;DHT22;2039;50.894;6.888;2023-02-28T08:24:30;1.60;1.00
4050;DHT22;2039;50.894;6.888;2023-02-28T08:26:56;1.70;1.00
4050;DHT22;2039;50.894;6.888;2023-02-28T08:29:22;1.80;1.00
4050;DHT22;2039;50.894;6.888;2023-02-28T08:31:50;1.80;1.00
4050;DHT22;2039;50.894;6.888;2023-02-28T08:34:16;1.90;1.00
4050;DHT22;2039;50.894;6.888;2023-02-28T08:36:42;1.90;1.00
4050;DHT22;2039;50.894;6.888;2023-02-28T08:39:10;2.00;1.00
4050;DHT22;2039;50.894;6.888;2023-02-28T08:41:36;2.00;1.00
4050;DHT22;2039;50.894;6.888;2023-02-28T08:44:02;2.00;1.00
4050;DHT22;2039;50.894;6.888;2023-02-28T08:46:27;2.10;1.00
4050;DHT22;2039;50.894;6.888;2023-02-28T08:48:55;2.20;1.00
4050;DHT22;2039;50.894;6.888;2023-02-28T08:51:21;2.20;1.00
4050;DHT22;2039;50.894;6.888;2023-02-28T08:53:56;2.20;1.00
4050;DHT22;2039;50.894;6.888;2023-02-28T08:56:22;2.20;1.00
4050;DHT22;2039;50.894;6.888;2023-02-28T08:58:49;2.40;1.00
4050;DHT22;2039;50.894;6.888;2023-02-28T09:01:20;2.40;1.00
4050;DHT22;2039;50.894;6.888;2023-02-28T09:03:48;2.40;1.00
4050;DHT22;2039;50.894;6.888;2023-02-28T09:06:15;2.50;1.00
4050;DHT22;2039;50.894;6.888;2023-02-28T09:08:44;2.60;1.00
4050;DHT22;2039;50.894;6.888;2023-02-28T09:11:11;2.50;1.00
4050;DHT22;2039;50.894;6.888;2023-02-28T09:13:37;2.50;1.00
4050;DHT22;2039;50.894;6.888;2023-02-28T09:16:04;2.60;1.00
4050;DHT22;2039;50.894;6.888;2023-02-28T09:18:31;2.60;1.00
4050;DHT22;2039;50.894;6.888;2023-02-28T09:20:56;2.60;1.00
4050;DHT22;2039;50.894;6.888;2023-02-28T09:23:23;2.60;1.00
4050;DHT22;2039;50.894;6.888;2023-02-28T09:25:54;2.70;1.00
4050;DHT22;2039;50.894;6.888;2023-02-28T09:28:21;2.70;1.00
4050;DHT22;2039;50.894;6.888;2023-02-28T09:30:49;2.70;1.00
4050;DHT22;2039;50.894;6.888;2023-02-28T09:33:16;2.70;1.00
4050;DHT22;2039;50.894;6.888;2023-02-28T09:35:42;2.70;1.00
4050;DHT22;2039;50.894;6.888;2023-02-28T09:38:09;2.80;1.00
4050;DHT22;2039;50.894;6.888;2023-02-28T09:40:48;2.80;1.00
4050;DHT22;2039;50.894;6.888;2023-02-28T09:43:15;2.90;1.00
4050;DHT22;2039;50.894;6.888;2023-02-28T09:45:47;3.00;1.00
4050;DHT22;2039;50.894;6.888;2023-02-28T09:48:31;3.00;1.00
4050;DHT22;2039;50.894;6.888;2023-02-28T09:54:39;3.10;1.00
4050;DHT22;2039;50.894;6.888;2023-02-28T10:09:23;3.60;1.00
4050;DHT22;2039;50.894;6.888;2023-02-28T10:12:03;3.60;1.00
4050;DHT22;2039;50.894;6.888;2023-02-28T10:14:49;3.70;1.00
4050;DHT22;2039;50.894;6.888;2023-02-28T10:17:45;3.70;1.00
4050;DHT22;2039;50.894;6.888;2023-02-28T10:20:28;3.60;1.00
4050;DHT22;2039;50.894;6.888;2023-02-28T10:28:56;3.90;1.00
4050;DHT22;2039;50.894;6.888;2023-02-28T10:31:38;3.90;1.00
4050;DHT22;2039;50.894;6.888;2023-02-28T10:37:33;4.20;1.00
4050;DHT22;2039;50.894;6.888;2023-02-28T10:40:05;4.00;1.00
4050;DHT22;2039;50.894;6.888;2023-02-28T10:42:34;4.10;1.00
4050;DHT22;2039;50.894;6.888;2023-02-28T10:45:20;4.10;1.00
4050;DHT22;2039;50.894;6.888;2023-02-28T10:50:55;4.30;1.00
4050;DHT22;2039;50.894;6.888;2023-02-28T10:59:20;4.50;1.00
4050;DHT22;2039;50.894;6.888;2023-02-28T11:01:47;4.60;1.00
4050;DHT22;2039;50.894;6.888;2023-02-28T11:07:24;4.90;1.00
4050;DHT22;2039;50.894;6.888;2023-02-28T11:10:07;5.00;1.00
4050;DHT22;2039;50.894;6.888;2023-02-28T11:12:40;4.80;1.00
4050;DHT22;2039;50.894;6.888;2023-02-28T11:15:32;4.70;1.00
4050;DHT22;2039;50.894;6.888;2023-02-28T11:18:32;4.80;1.00
4050;DHT22;2039;50.894;6.888;2023-02-28T11:21:01;4.70;1.00
4050;DHT22;2039;50.894;6.888;2023-02-28T11:23:30;4.80;1.00
4050;DHT22;2039;50.894;6.888;2023-02-28T11:26:02;4.50;1.00
4050;DHT22;2039;50.894;6.888;2023-02-28T11:33:52;4.40;1.00
4050;DHT22;2039;50.894;6.888;2023-02-28T11:39:10;4.80;1.00
4050;DHT22;2039;50.894;6.888;2023-02-28T11:44:59;5.10;1.00
4050;DHT22;2039;50.894;6.888;2023-02-28T11:47:47;5.30;1.00
4050;DHT22;2039;50.894;6.888;2023-02-28T11:50:39;5.50;1.00
4050;DHT22;2039;50.894;6.888;2023-02-28T11:53:14;5.70;1.00
4050;DHT22;2039;50.894;6.888;2023-02-28T11:55:52;5.80;1.00
4050;DHT22;2039;50.894;6.888;2023-02-28T12:04:25;6.10;1.00
4050;DHT22;2039;50.894;6.888;2023-02-28T12:09:42;6.10;1.00
4050;DHT22;2039;50.894;6.888;2023-02-28T12:12:19;5.70;1.00
4050;DHT22;2039;50.894;6.888;2023-02-28T12:15:05;5.50;1.00
4050;DHT22;2039;50.894;6.888;2023-02-28T12:23:43;5.80;1.00
4050;DHT22;2039;50.894;6.888;2023-02-28T12:34:33;6.00;1.00
4050;DHT22;2039;50.894;6.888;2023-02-28T12:37:06;5.90;1.00
4050;DHT22;2039;50.894;6.888;2023-02-28T12:39:38;5.80;1.00
4050;DHT22;2039;50.894;6.888;2023-02-28T12:42:19;5.70;1.00
4050;DHT22;2039;50.894;6.888;2023-02-28T12:44:53;5.70;1.00
4050;DHT22;2039;50.894;6.888;2023-02-28T12:47:23;5.70;1.00
4050;DHT22;2039;50.894;6.888;2023-02-28T12:50:24;6.00;1.00
4050;DHT22;2039;50.894;6.888;2023-02-28T12:52:59;6.20;1.00
4050;DHT22;2039;50.894;6.888;2023-02-28T12:55:40;6.40;1.00
4050;DHT22;2039;50.894;6.888;2023-02-28T13:00:38;6.30;1.00
4050;DHT22;2039;50.894;6.888;2023-02-28T13:06:10;6.30;1.00
4050;DHT22;2039;50.894;6.888;2023-02-28T13:09:09;6.30;1.00
4050;DHT22;2039;50.894;6.888;2023-02-28T13:11:40;6.00;1.00
4050;DHT22;2039;50.894;6.888;2023-02-28T13:14:19;6.20;1.00
4050;DHT22;2039;50.894;6.888;2023-02-28T13:16:54;6.30;1.00
4050;DHT22;2039;50.894;6.888;2023-02-28T13:19:22;6.20;1.00
4050;DHT22;2039;50.894;6.888;2023-02-28T13:21:50;6.20;1.00
4050;DHT22;2039;50.894;6.888;2023-02-28T13:24:42;6.10;1.00
4050;DHT22;2039;50.894;6.888;2023-02-28T13:29:41;5.90;1.00
4050;DHT22;2039;50.894;6.888;2023-02-28T13:32:32;5.90;1.00
4050;DHT22;2039;50.894;6.888;2023-02-28T13:37:33;5.80;1.00
4050;DHT22;2039;50.894;6.888;2023-02-28T13:47:33;5.80;1.00
4050;DHT22;2039;50.894;6.888;2023-02-28T13:50:27;5.80;1.00
4050;DHT22;2039;50.894;6.888;2023-02-28T13:55:34;6.00;1.00
4050;DHT22;2039;50.894;6.888;2023-02-28T14:06:50;5.70;1.00
4050;DHT22;2039;50.894;6.888;2023-02-28T14:11:52;5.70;1.00
4050;DHT22;2039;50.894;6.888;2023-02-28T14:17:08;5.70;1.00
4050;DHT22;2039;50.894;6.888;2023-02-28T14:19:39;5.80;1.00
4050;DHT22;2039;50.894;6.888;2023-02-28T14:28:06;5.70;1.00
4050;DHT22;2039;50.894;6.888;2023-02-28T14:30:52;5.70;1.00
4050;DHT22;2039;50.894;6.888;2023-02-28T14:36:23;5.90;1.00
4050;DHT22;2039;50.894;6.888;2023-02-28T14:38:53;5.70;1.00
4050;DHT22;2039;50.894;6.888;2023-02-28T14:41:37;5.80;1.00
4050;DHT22;2039;50.894;6.888;2023-02-28T14:44:22;5.80;1.00
4050;DHT22;2039;50.894;6.888;2023-02-28T14:47:13;5.90;1.00
4050;DHT22;2039;50.894;6.888;2023-02-28T14:49:44;5.90;1.00
4050;DHT22;2039;50.894;6.888;2023-02-28T14:52:19;5.90;1.00
4050;DHT22;2039;50.894;6.888;2023-02-28T14:54:46;5.90;1.00
4050;DHT22;2039;50.894;6.888;2023-02-28T14:57:38;6.00;1.00
4050;DHT22;2039;50.894;6.888;2023-02-28T15:02:40;6.00;1.00
4050;DHT22;2039;50.894;6.888;2023-02-28T15:10:37;6.00;1.00
4050;DHT22;2039;50.894;6.888;2023-02-28T15:13:10;6.00;1.00
4050;DHT22;2039;50.894;6.888;2023-02-28T15:15:47;6.10;1.00
4050;DHT22;2039;50.894;6.888;2023-02-28T15:23:45;6.20;1.00
4050;DHT22;2039;50.894;6.888;2023-02-28T15:26:15;6.20;1.00
4050;DHT22;2039;50.894;6.888;2023-02-28T15:28:43;6.20;1.00
4050;DHT22;2039;50.894;6.888;2023-02-28T15:31:26;6.30;1.00
4050;DHT22;2039;50.894;6.888;2023-02-28T15:34:03;6.20;1.00
4050;DHT22;2039;50.894;6.888;2023-02-28T15:36:32;6.20;1.00
4050;DHT22;2039;50.894;6.888;2023-02-28T15:38:59;6.30;1.00
4050;DHT22;2039;50.894;6.888;2023-02-28T15:41:31;6.30;1.00
4050;DHT22;2039;50.894;6.888;2023-02-28T15:44:24;6.30;1.00
4050;DHT22;2039;50.894;6.888;2023-02-28T15:47:19;6.20;1.00
4050;DHT22;2039;50.894;6.888;2023-02-28T15:49:53;6.20;1.00
4050;DHT22;2039;50.894;6.888;2023-02-28T15:52:55;6.20;1.00
4050;DHT22;2039;50.894;6.888;2023-02-28T15:55:28;6.20;1.00
4050;DHT22;2039;50.894;6.888;2023-02-28T15:57:57;6.10;1.00
4050;DHT22;2039;50.894;6.888;2023-02-28T16:00:28;6.30;1.00
4050;DHT22;2039;50.894;6.888;2023-02-28T16:02:58;6.30;1.00
4050;DHT22;2039;50.894;6.888;2023-02-28T16:08:15;6.20;1.00
4050;DHT22;2039;50.894;6.888;2023-02-28T16:10:41;6.20;1.00
4050;DHT22;2039;50.894;6.888;2023-02-28T16:13:10;6.10;1.00
4050;DHT22;2039;50.894;6.888;2023-02-28T16:15:39;6.10;1.00
4050;DHT22;2039;50.894;6.888;2023-02-28T16:18:10;6.10;1.00
4050;DHT22;2039;50.894;6.888;2023-02-28T16:20:39;6.10;1.00
4050;DHT22;2039;50.894;6.888;2023-02-28T16:23:05;6.20;1.00
4050;DHT22;2039;50.894;6.888;2023-02-28T16:25:40;6.20;1.00
4050;DHT22;2039;50.894;6.888;2023-02-28T16:28:25;6.20;1.00
4050;DHT22;2039;50.894;6.888;2023-02-28T16:30:55;6.10;1.00
4050;DHT22;2039;50.894;6.888;2023-02-28T16:33:21;6.10;1.00
4050;DHT22;2039;50.894;6.888;2023-02-28T16:35:46;6.00;1.00
4050;DHT22;2039;50.894;6.888;2023-02-28T16:38:15;6.00;1.00
4050;DHT22;2039;50.894;6.888;2023-02-28T16:40:41;5.90;1.00
4050;DHT22;2039;50.894;6.888;2023-02-28T16:43:18;5.90;1.00
4050;DHT22;2039;50.894;6.888;2023-02-28T16:45:46;5.90;1.00
4050;DHT22;2039;50.894;6.888;2023-02-28T16:48:14;6.10;1.00
4050;DHT22;2039;50.894;6.888;2023-02-28T16:50:43;6.00;1.00
4050;DHT22;2039;50.894;6.888;2023-02-28T16:53:10;5.90;1.00
4050;DHT22;2039;50.894;6.888;2023-02-28T16:55:36;5.80;1.00
4050;DHT22;2039;50.894;6.888;2023-02-28T16:58:03;5.70;1.00
4050;DHT22;2039;50.894;6.888;2023-02-28T17:00:31;5.70;1.00
4050;DHT22;2039;50.894;6.888;2023-02-28T17:03:27;5.70;1.00
4050;DHT22;2039;50.894;6.888;2023-02-28T17:06:04;5.60;1.00
4050;DHT22;2039;50.894;6.888;2023-02-28T17:08:31;5.50;1.00
4050;DHT22;2039;50.894;6.888;2023-02-28T17:10:58;5.40;1.00
4050;DHT22;2039;50.894;6.888;2023-02-28T17:13:24;5.40;1.00
4050;DHT22;2039;50.894;6.888;2023-02-28T17:15:52;5.30;1.00
4050;DHT22;2039;50.894;6.888;2023-02-28T17:18:19;5.30;1.00
4050;DHT22;2039;50.894;6.888;2023-02-28T17:20:46;5.30;1.00
4050;DHT22;2039;50.894;6.888;2023-02-28T17:23:12;5.30;1.00
4050;DHT22;2039;50.894;6.888;2023-02-28T17:25:41;5.20;1.00
4050;DHT22;2039;50.894;6.888;2023-02-28T17:28:20;5.20;1.00
4050;DHT22;2039;50.894;6.888;2023-02-28T17:30:55;5.20;1.00
4050;DHT22;2039;50.894;6.888;2023-02-28T17:33:34;5.20;1.00
4050;DHT22;2039;50.894;6.888;2023-02-28T17:36:08;5.10;1.00
4050;DHT22;2039;50.894;6.888;2023-02-28T17:38:40;5.20;1.00
4050;DHT22;2039;50.894;6.888;2023-02-28T17:41:15;5.00;1.00
4050;DHT22;2039;50.894;6.888;2023-02-28T17:43:44;4.90;1.00
4050;DHT22;2039;50.894;6.888;2023-02-28T17:46:25;4.90;1.00
4050;DHT22;2039;50.894;6.888;2023-02-28T17:49:06;4.90;1.00
4050;DHT22;2039;50.894;6.888;2023-02-28T17:51:34;4.90;1.00
4050;DHT22;2039;50.894;6.888;2023-02-28T17:54:24;4.80;1.00
4050;DHT22;2039;50.894;6.888;2023-02-28T17:57:30;4.80;1.00
4050;DHT22;2039;50.894;6.888;2023-02-28T18:04:05;4.90;1.00
4050;DHT22;2039;50.894;6.888;2023-02-28T18:06:42;4.90;1.00
4050;DHT22;2039;50.894;6.888;2023-02-28T18:09:34;4.80;1.00
4050;DHT22;2039;50.894;6.888;2023-02-28T18:12:47;4.90;1.00
4050;DHT22;2039;50.894;6.888;2023-02-28T18:15:28;4.70;1.00
4050;DHT22;2039;50.894;6.888;2023-02-28T18:18:02;4.70;1.00
4050;DHT22;2039;50.894;6.888;2023-02-28T18:20:40;4.70;1.00
4050;DHT22;2039;50.894;6.888;2023-02-28T18:23:29;4.60;1.00
4050;DHT22;2039;50.894;6.888;2023-02-28T18:26:08;4.60;1.00
4050;DHT22;2039;50.894;6.888;2023-02-28T18:28:52;4.60;1.00
4050;DHT22;2039;50.894;6.888;2023-02-28T18:31:58;4.60;1.00
4050;DHT22;2039;50.894;6.888;2023-02-28T18:34:45;4.60;1.00
4050;DHT22;2039;50.894;6.888;2023-02-28T18:37:17;4.60;1.00
4050;DHT22;2039;50.894;6.888;2023-02-28T18:39:46;4.60;1.00
4050;DHT22;2039;50.894;6.888;2023-02-28T18:42:15;4.60;1.00
4050;DHT22;2039;50.894;6.888;2023-02-28T18:47:38;4.50;1.00
4050;DHT22;2039;50.894;6.888;2023-02-28T18:50:13;4.40;1.00
4050;DHT22;2039;50.894;6.888;2023-02-28T18:52:44;4.40;1.00
4050;DHT22;2039;50.894;6.888;2023-02-28T18:55:25;4.40;1.00
4050;DHT22;2039;50.894;6.888;2023-02-28T18:57:56;4.40;1.00
4050;DHT22;2039;50.894;6.888;2023-02-28T19:00:23;4.40;1.00
4050;DHT22;2039;50.894;6.888;2023-02-28T19:03:15;4.40;1.00
4050;DHT22;2039;50.894;6.888;2023-02-28T19:05:52;4.30;1.00
4050;DHT22;2039;50.894;6.888;2023-02-28T19:08:25;4.30;1.00
4050;DHT22;2039;50.894;6.888;2023-02-28T19:11:14;4.30;1.00
4050;DHT22;2039;50.894;6.888;2023-02-28T19:13:50;4.30;1.00
4050;DHT22;2039;50.894;6.888;2023-02-28T19:16:20;4.20;1.00
4050;DHT22;2039;50.894;6.888;2023-02-28T19:19:09;4.10;1.00
4050;DHT22;2039;50.894;6.888;2023-02-28T19:21:41;4.10;1.00
4050;DHT22;2039;50.894;6.888;2023-02-28T19:24:07;4.20;1.00
4050;DHT22;2039;50.894;6.888;2023-02-28T19:26:38;4.00;1.00
4050;DHT22;2039;50.894;6.888;2023-02-28T19:29:44;4.00;1.00
4050;DHT22;2039;50.894;6.888;2023-02-28T19:32:20;4.00;1.00
4050;DHT22;2039;50.894;6.888;2023-02-28T19:34:49;4.00;1.00
4050;DHT22;2039;50.894;6.888;2023-02-28T19:40:46;3.80;1.00
4050;DHT22;2039;50.894;6.888;2023-02-28T19:43:56;3.70;1.00
4050;DHT22;2039;50.894;6.888;2023-02-28T19:46:40;3.60;1.00
4050;DHT22;2039;50.894;6.888;2023-02-28T19:49:17;3.60;1.00
4050;DHT22;2039;50.894;6.888;2023-02-28T19:55:17;3.60;1.00
4050;DHT22;2039;50.894;6.888;2023-02-28T19:58:22;3.60;1.00
4050;DHT22;2039;50.894;6.888;2023-02-28T20:00:50;3.60;1.00
4050;DHT22;2039;50.894;6.888;2023-02-28T20:04:19;3.50;1.00
4050;DHT22;2039;50.894;6.888;2023-02-28T20:07:05;3.40;1.00
4050;DHT22;2039;50.894;6.888;2023-02-28T20:10:18;3.30;1.00
4050;DHT22;2039;50.894;6.888;2023-02-28T20:13:23;3.30;1.00
4050;DHT22;2039;50.894;6.888;2023-02-28T20:16:08;3.30;1.00
4050;DHT22;2039;50.894;6.888;2023-02-28T20:19:15;3.40;1.00
4050;DHT22;2039;50.894;6.888;2023-02-28T20:22:02;3.50;1.00